createdAt,value
2018-07-28T00:00:38.391Z,25.33
2018-07-28T00:01:38.956Z,25.36
2018-07-28T00:02:39.547Z,25.50
2018-07-28T00:03:40.114Z,25.44
2018-07-28T00:04:40.662Z,25.38
2018-07-28T00:05:41.227Z,25.33
2018-07-28T00:06:41.783Z,25.46
2018-07-28T00:07:42.343Z,25.57
2018-07-28T00:08:42.903Z,25.53
2018-07-28T00:09:43.460Z,25.62
2018-07-28T00:10:44.019Z,25.62
2018-07-28T00:11:44.578Z,25.56
2018-07-28T00:12:45.135Z,25.58
2018-07-28T00:13:45.693Z,25.66
2018-07-28T00:14:46.251Z,25.68
2018-07-28T00:15:46.811Z,25.69
2018-07-28T00:16:47.372Z,25.69
2018-07-28T00:17:47.927Z,25.69
2018-07-28T00:18:48.485Z,25.71
2018-07-28T00:19:49.048Z,25.72
2018-07-28T00:20:49.608Z,25.80
2018-07-28T00:21:50.165Z,25.78
2018-07-28T00:22:50.726Z,25.76
2018-07-28T00:23:51.279Z,25.81
2018-07-28T00:24:51.828Z,25.76
2018-07-28T00:25:52.396Z,25.83
2018-07-28T00:26:52.951Z,25.76
2018-07-28T00:27:53.510Z,25.68
2018-07-28T00:28:54.063Z,25.68
2018-07-28T00:29:54.616Z,25.71
2018-07-28T00:30:55.174Z,25.62
2018-07-28T00:31:55.732Z,25.51
2018-07-28T00:32:56.293Z,25.50
2018-07-28T00:33:56.850Z,25.44
2018-07-28T00:34:57.410Z,25.47
2018-07-28T00:35:57.971Z,25.57
2018-07-28T00:36:58.529Z,25.46
2018-07-28T00:37:59.087Z,25.46
2018-07-28T00:38:59.635Z,25.32
2018-07-28T00:40:00.189Z,25.38
2018-07-28T00:41:00.751Z,25.35
2018-07-28T00:42:01.305Z,25.33
2018-07-28T00:43:01.858Z,25.31
2018-07-28T00:44:02.419Z,25.31
2018-07-28T00:45:02.972Z,25.36
2018-07-28T00:46:03.529Z,25.44
2018-07-28T00:47:04.081Z,25.31
2018-07-28T00:48:04.640Z,25.35
2018-07-28T00:49:05.201Z,25.33
2018-07-28T00:50:05.748Z,25.44
2018-07-28T00:51:06.304Z,25.29
2018-07-28T00:52:06.872Z,25.32
2018-07-28T00:53:07.424Z,25.33
2018-07-28T00:54:07.985Z,25.41
2018-07-28T00:55:08.543Z,25.33
2018-07-28T00:56:09.099Z,25.33
2018-07-28T00:57:09.661Z,25.35
2018-07-28T00:58:10.219Z,25.31
2018-07-28T00:59:10.777Z,25.26
2018-07-28T01:00:11.337Z,25.24
2018-07-28T01:01:11.884Z,25.16
2018-07-28T01:02:12.443Z,25.16
2018-07-28T01:03:13.004Z,25.24
2018-07-28T01:04:13.561Z,25.04
2018-07-28T01:05:14.118Z,25.01
2018-07-28T01:06:14.679Z,24.96
2018-07-28T01:07:15.239Z,25.01
2018-07-28T01:08:15.805Z,24.95
2018-07-28T01:09:16.349Z,25.02
2018-07-28T01:10:16.908Z,24.98
2018-07-28T01:11:17.468Z,24.96
2018-07-28T01:12:18.025Z,24.98
2018-07-28T01:13:18.576Z,24.94
2018-07-28T01:14:19.133Z,25.04
2018-07-28T01:15:19.693Z,24.98
2018-07-28T01:16:20.250Z,24.96
2018-07-28T01:17:20.804Z,25.01
2018-07-28T01:18:21.365Z,24.95
2018-07-28T01:19:21.920Z,24.84
2018-07-28T01:20:22.473Z,24.95
2018-07-28T01:21:23.032Z,24.83
2018-07-28T01:22:23.585Z,24.84
2018-07-28T01:23:24.145Z,24.76
2018-07-28T01:24:24.699Z,24.64
2018-07-28T01:25:25.256Z,24.58
2018-07-28T01:26:25.813Z,24.57
2018-07-28T01:27:26.374Z,24.54
2018-07-28T01:28:26.930Z,24.58
2018-07-28T01:29:27.480Z,24.60
2018-07-28T01:30:28.035Z,24.57
2018-07-28T01:31:28.588Z,24.56
2018-07-28T01:32:29.146Z,24.51
2018-07-28T01:33:29.699Z,24.54
2018-07-28T01:34:30.256Z,24.51
2018-07-28T01:35:30.817Z,24.50
2018-07-28T01:36:31.372Z,24.60
2018-07-28T01:37:31.929Z,24.45
2018-07-28T01:38:32.486Z,24.42
2018-07-28T01:39:33.043Z,24.45
2018-07-28T01:40:33.607Z,24.50
2018-07-28T01:41:34.161Z,24.45
2018-07-28T01:42:34.719Z,24.45
2018-07-28T01:43:35.274Z,24.42
2018-07-28T01:44:35.832Z,24.42
2018-07-28T01:45:36.390Z,24.41
2018-07-28T01:46:36.953Z,24.35
2018-07-28T01:47:37.510Z,24.41
2018-07-28T01:48:38.067Z,24.41
2018-07-28T01:49:38.623Z,24.45
2018-07-28T01:50:39.183Z,24.32
2018-07-28T01:51:39.744Z,24.32
2018-07-28T01:52:40.296Z,24.28
2018-07-28T01:53:40.851Z,24.21
2018-07-28T01:54:41.411Z,24.20
2018-07-28T01:55:41.971Z,24.17
2018-07-28T01:56:42.520Z,24.14
2018-07-28T01:57:43.076Z,24.13
2018-07-28T01:58:43.631Z,24.09
2018-07-28T01:59:44.230Z,24.11
2018-07-28T02:00:44.748Z,24.09
2018-07-28T02:01:45.311Z,24.05
2018-07-28T02:02:45.868Z,24.02
2018-07-28T02:03:46.424Z,24.05
2018-07-28T02:04:46.981Z,23.90
2018-07-28T02:05:47.541Z,23.88
2018-07-28T02:06:48.100Z,23.72
2018-07-28T02:07:48.656Z,23.84
2018-07-28T02:08:49.217Z,23.87
2018-07-28T02:09:49.774Z,23.90
2018-07-28T02:10:50.341Z,23.98
2018-07-28T02:11:50.891Z,24.03
2018-07-28T02:12:51.442Z,23.99
2018-07-28T02:13:51.996Z,23.99
2018-07-28T02:14:52.555Z,24.06
2018-07-28T02:15:53.113Z,24.02
2018-07-28T02:16:53.670Z,24.18
2018-07-28T02:17:54.225Z,24.23
2018-07-28T02:18:54.778Z,24.28
2018-07-28T02:19:55.336Z,24.31
2018-07-28T02:20:55.894Z,24.43
2018-07-28T02:21:56.449Z,24.42
2018-07-28T02:22:57.003Z,24.42
2018-07-28T02:23:57.555Z,24.41
2018-07-28T02:24:58.114Z,24.38
2018-07-28T02:25:58.670Z,24.48
2018-07-28T02:26:59.219Z,24.45
2018-07-28T02:27:59.773Z,24.43
2018-07-28T02:29:00.333Z,24.41
2018-07-28T02:30:00.893Z,24.45
2018-07-28T02:31:01.455Z,24.41
2018-07-28T02:32:02.008Z,24.35
2018-07-28T02:33:02.584Z,24.32
2018-07-28T02:34:03.126Z,24.35
2018-07-28T02:35:03.675Z,24.35
2018-07-28T02:36:04.236Z,24.28
2018-07-28T02:37:04.795Z,24.27
2018-07-28T02:38:05.349Z,24.23
2018-07-28T02:39:05.903Z,24.17
2018-07-28T02:40:06.456Z,24.17
2018-07-28T02:41:07.016Z,24.14
2018-07-28T02:42:07.576Z,24.14
2018-07-28T02:43:08.131Z,24.11
2018-07-28T02:44:08.687Z,24.20
2018-07-28T02:45:09.243Z,24.21
2018-07-28T02:46:09.802Z,24.16
2018-07-28T02:47:10.361Z,24.16
2018-07-28T02:48:10.919Z,24.17
2018-07-28T02:49:11.480Z,24.18
2018-07-28T02:50:12.034Z,24.16
2018-07-28T02:51:12.591Z,24.14
2018-07-28T02:52:13.145Z,24.09
2018-07-28T02:53:13.721Z,24.17
2018-07-28T02:54:14.262Z,24.14
2018-07-28T02:55:14.819Z,24.03
2018-07-28T02:56:15.377Z,24.13
2018-07-28T02:57:15.933Z,24.11
2018-07-28T02:58:16.492Z,24.06
2018-07-28T02:59:17.043Z,24.01
2018-07-28T03:00:17.643Z,24.01
2018-07-28T03:01:18.150Z,24.11
2018-07-28T03:02:18.709Z,23.99
2018-07-28T03:03:19.270Z,24.01
2018-07-28T03:04:19.830Z,24.11
2018-07-28T03:05:20.395Z,24.05
2018-07-28T03:06:20.953Z,24.03
2018-07-28T03:07:21.504Z,24.09
2018-07-28T03:08:22.055Z,24.03
2018-07-28T03:09:22.618Z,24.02
2018-07-28T03:10:23.169Z,24.01
2018-07-28T03:11:23.725Z,23.99
2018-07-28T03:12:24.288Z,23.98
2018-07-28T03:13:24.842Z,24.01
2018-07-28T03:14:25.409Z,24.06
2018-07-28T03:15:25.943Z,23.96
2018-07-28T03:16:26.500Z,23.91
2018-07-28T03:17:27.054Z,23.95
2018-07-28T03:18:27.616Z,23.90
2018-07-28T03:19:28.176Z,23.80
2018-07-28T03:20:28.729Z,23.88
2018-07-28T03:21:29.296Z,23.96
2018-07-28T03:22:29.843Z,23.91
2018-07-28T03:23:30.407Z,23.91
2018-07-28T03:24:30.964Z,23.81
2018-07-28T03:25:31.521Z,23.84
2018-07-28T03:26:32.077Z,23.96
2018-07-28T03:27:32.630Z,23.94
2018-07-28T03:28:33.186Z,23.83
2018-07-28T03:29:33.745Z,23.81
2018-07-28T03:30:34.304Z,23.77
2018-07-28T03:31:34.864Z,23.79
2018-07-28T03:32:35.422Z,23.80
2018-07-28T03:33:35.991Z,23.71
2018-07-28T03:34:36.540Z,23.69
2018-07-28T03:35:37.097Z,23.71
2018-07-28T03:36:37.854Z,23.72
2018-07-28T03:37:38.413Z,23.71
2018-07-28T03:38:38.976Z,23.72
2018-07-28T03:39:39.535Z,23.71
2018-07-28T03:40:40.095Z,23.74
2018-07-28T03:41:40.656Z,23.77
2018-07-28T03:42:41.215Z,23.80
2018-07-28T03:43:41.778Z,23.77
2018-07-28T03:44:42.335Z,23.61
2018-07-28T03:45:42.896Z,23.65
2018-07-28T03:46:43.456Z,23.64
2018-07-28T03:47:44.029Z,23.66
2018-07-28T03:48:44.577Z,23.64
2018-07-28T03:49:45.139Z,23.61
2018-07-28T03:50:45.694Z,23.65
2018-07-28T03:51:46.251Z,23.68
2018-07-28T03:52:46.812Z,23.69
2018-07-28T03:53:47.375Z,23.61
2018-07-28T03:54:47.931Z,23.59
2018-07-28T03:55:48.492Z,23.61
2018-07-28T03:56:49.054Z,23.66
2018-07-28T03:57:49.615Z,23.71
2018-07-28T03:58:50.177Z,23.69
2018-07-28T03:59:50.743Z,23.66
2018-07-28T04:00:51.303Z,23.68
2018-07-28T04:01:51.871Z,23.65
2018-07-28T04:02:52.428Z,23.66
2018-07-28T04:03:52.989Z,23.61
2018-07-28T04:04:53.553Z,23.65
2018-07-28T04:05:54.118Z,23.66
2018-07-28T04:06:54.678Z,23.72
2018-07-28T04:07:55.238Z,23.83
2018-07-28T04:08:55.800Z,23.87
2018-07-28T04:09:56.364Z,23.80
2018-07-28T04:10:56.925Z,23.96
2018-07-28T04:11:57.489Z,23.94
2018-07-28T04:12:58.048Z,23.88
2018-07-28T04:13:58.611Z,23.94
2018-07-28T04:14:59.177Z,23.99
2018-07-28T04:15:59.737Z,24.01
2018-07-28T04:17:00.301Z,24.05
2018-07-28T04:18:00.865Z,24.13
2018-07-28T04:19:01.427Z,24.16
2018-07-28T04:20:01.990Z,24.18
2018-07-28T04:21:02.551Z,24.23
2018-07-28T04:22:03.107Z,24.24
2018-07-28T04:23:03.670Z,24.26
2018-07-28T04:24:04.233Z,24.31
2018-07-28T04:25:04.796Z,24.38
2018-07-28T04:26:05.359Z,24.32
2018-07-28T04:27:05.920Z,24.38
2018-07-28T04:28:06.478Z,24.41
2018-07-28T04:29:07.041Z,24.32
2018-07-28T04:30:07.613Z,24.21
2018-07-28T04:31:08.168Z,24.16
2018-07-28T04:32:08.722Z,24.18
2018-07-28T04:33:09.286Z,24.20
2018-07-28T04:34:09.847Z,24.18
2018-07-28T04:35:10.411Z,24.14
2018-07-28T04:36:10.965Z,24.11
2018-07-28T04:37:11.672Z,24.02
2018-07-28T04:38:12.089Z,23.98
2018-07-28T04:39:12.655Z,23.95
2018-07-28T04:40:13.216Z,23.80
2018-07-28T04:41:13.779Z,23.80
2018-07-28T04:42:14.344Z,23.96
2018-07-28T04:43:14.910Z,23.99
2018-07-28T04:44:15.465Z,24.20
2018-07-28T04:45:16.030Z,24.43
2018-07-28T04:46:16.594Z,24.88
2018-07-28T04:47:17.157Z,25.18
2018-07-28T04:48:17.726Z,25.47
2018-07-28T04:49:18.290Z,25.47
2018-07-28T04:50:18.857Z,25.28
2018-07-28T04:51:19.417Z,25.10
2018-07-28T04:52:19.981Z,24.94
2018-07-28T04:53:20.549Z,24.86
2018-07-28T04:54:21.100Z,24.69
2018-07-28T04:55:21.665Z,24.74
2018-07-28T04:56:22.228Z,24.58
2018-07-28T04:57:22.789Z,24.58
2018-07-28T04:58:23.354Z,24.48
2018-07-28T04:59:23.917Z,24.28
2018-07-28T05:00:24.481Z,24.18
2018-07-28T05:01:25.040Z,24.20
2018-07-28T05:02:25.597Z,24.21
2018-07-28T05:03:26.156Z,24.23
2018-07-28T05:04:26.720Z,24.21
2018-07-28T05:05:27.293Z,24.16
2018-07-28T05:06:27.833Z,24.21
2018-07-28T05:07:28.453Z,24.17
2018-07-28T05:08:28.953Z,24.06
2018-07-28T05:09:29.510Z,24.05
2018-07-28T05:10:30.073Z,24.06
2018-07-28T05:11:30.638Z,24.02
2018-07-28T05:12:31.213Z,23.86
2018-07-28T05:13:31.756Z,23.80
2018-07-28T05:14:32.319Z,23.77
2018-07-28T05:15:32.881Z,23.72
2018-07-28T05:16:33.448Z,23.68
2018-07-28T05:17:34.000Z,23.59
2018-07-28T05:18:34.563Z,23.49
2018-07-28T05:19:35.126Z,23.54
2018-07-28T05:20:35.690Z,23.59
2018-07-28T05:21:36.253Z,23.31
2018-07-28T05:22:36.816Z,23.35
2018-07-28T05:23:37.404Z,23.37
2018-07-28T05:24:37.940Z,23.43
2018-07-28T05:25:38.506Z,23.40
2018-07-28T05:26:39.065Z,23.41
2018-07-28T05:27:39.628Z,23.44
2018-07-28T05:28:40.195Z,23.39
2018-07-28T05:29:40.793Z,23.47
2018-07-28T05:30:41.320Z,23.51
2018-07-28T05:31:41.884Z,23.53
2018-07-28T05:32:42.451Z,23.58
2018-07-28T05:33:43.007Z,23.58
2018-07-28T05:34:43.570Z,23.64
2018-07-28T05:35:44.132Z,23.69
2018-07-28T05:36:44.697Z,23.64
2018-07-28T05:37:45.261Z,23.79
2018-07-28T05:38:45.824Z,23.76
2018-07-28T05:39:46.389Z,23.80
2018-07-28T05:40:46.949Z,23.76
2018-07-28T05:41:47.515Z,23.69
2018-07-28T05:42:48.075Z,23.71
2018-07-28T05:43:48.641Z,23.59
2018-07-28T05:44:49.209Z,23.50
2018-07-28T05:45:49.768Z,23.43
2018-07-28T05:46:50.330Z,23.43
2018-07-28T05:47:50.885Z,23.37
2018-07-28T05:48:51.443Z,23.35
2018-07-28T05:49:52.007Z,23.35
2018-07-28T05:50:52.566Z,23.28
2018-07-28T05:51:53.128Z,23.40
2018-07-28T05:52:53.692Z,23.37
2018-07-28T05:53:54.254Z,23.34
2018-07-28T05:54:54.817Z,23.49
2018-07-28T05:55:55.375Z,23.43
2018-07-28T05:56:55.943Z,23.37
2018-07-28T05:57:56.504Z,23.43
2018-07-28T05:58:57.064Z,23.53
2018-07-28T05:59:57.630Z,23.51
2018-07-28T06:00:58.195Z,23.49
2018-07-28T06:01:58.759Z,23.44
2018-07-28T06:02:59.322Z,23.39
2018-07-28T06:03:59.884Z,23.40
2018-07-28T06:05:00.463Z,23.43
2018-07-28T06:06:01.017Z,23.40
2018-07-28T06:07:01.573Z,23.46
2018-07-28T06:08:02.129Z,23.43
2018-07-28T06:09:02.694Z,23.40
2018-07-28T06:10:03.257Z,23.37
2018-07-28T06:11:03.823Z,23.25
2018-07-28T06:12:04.388Z,23.31
2018-07-28T06:13:04.954Z,23.40
2018-07-28T06:14:05.535Z,23.31
2018-07-28T06:15:06.087Z,23.32
2018-07-28T06:16:06.644Z,23.46
2018-07-28T06:17:07.209Z,23.51
2018-07-28T06:18:07.772Z,23.58
2018-07-28T06:19:08.332Z,23.58
2018-07-28T06:20:08.996Z,23.59
2018-07-28T06:21:09.513Z,23.68
2018-07-28T06:22:10.075Z,23.68
2018-07-28T06:23:10.643Z,23.72
2018-07-28T06:24:11.214Z,23.62
2018-07-28T06:25:11.768Z,23.62
2018-07-28T06:26:12.329Z,23.66
2018-07-28T06:27:12.922Z,23.72
2018-07-28T06:28:13.461Z,23.83
2018-07-28T06:29:14.024Z,23.90
2018-07-28T06:30:14.583Z,24.08
2018-07-28T06:31:15.146Z,24.14
2018-07-28T06:32:15.707Z,24.18
2018-07-28T06:33:16.269Z,24.16
2018-07-28T06:34:16.835Z,24.18
2018-07-28T06:35:17.391Z,24.24
2018-07-28T06:36:17.959Z,24.38
2018-07-28T06:37:18.519Z,24.43
2018-07-28T06:38:19.091Z,24.42
2018-07-28T06:39:19.647Z,24.31
2018-07-28T06:40:20.209Z,24.33
2018-07-28T06:41:20.774Z,24.31
2018-07-28T06:42:21.338Z,24.33
2018-07-28T06:43:21.897Z,24.43
2018-07-28T06:44:22.469Z,24.39
2018-07-28T06:45:23.029Z,24.58
2018-07-28T06:46:23.596Z,24.69
2018-07-28T06:47:24.216Z,24.91
2018-07-28T06:48:24.724Z,24.95
2018-07-28T06:49:25.291Z,25.11
2018-07-28T06:50:25.863Z,25.04
2018-07-28T06:51:26.432Z,24.95
2018-07-28T06:52:26.992Z,24.95
2018-07-28T06:53:27.561Z,25.02
2018-07-28T06:54:28.126Z,25.13
2018-07-28T06:55:28.685Z,25.09
2018-07-28T06:56:29.252Z,25.07
2018-07-28T06:57:29.809Z,25.20
2018-07-28T06:58:30.413Z,25.17
2018-07-28T06:59:30.944Z,25.16
2018-07-28T07:00:31.504Z,25.26
2018-07-28T07:01:32.074Z,25.29
2018-07-28T07:02:32.641Z,25.51
2018-07-28T07:03:33.210Z,25.56
2018-07-28T07:04:33.794Z,25.47
2018-07-28T07:05:34.351Z,25.51
2018-07-28T07:06:34.917Z,25.50
2018-07-28T07:07:35.486Z,25.71
2018-07-28T07:08:36.052Z,25.81
2018-07-28T07:09:36.626Z,25.99
2018-07-28T07:10:37.197Z,26.13
2018-07-28T07:11:37.808Z,26.37
2018-07-28T07:12:38.322Z,26.91
2018-07-28T07:13:38.894Z,27.25
2018-07-28T07:14:39.468Z,27.86
2018-07-28T07:15:40.039Z,28.29
2018-07-28T07:16:40.611Z,28.96
2018-07-28T07:17:41.178Z,29.17
2018-07-28T07:18:41.742Z,29.37
2018-07-28T07:19:42.318Z,29.16
2018-07-28T07:20:42.892Z,29.10
2018-07-28T07:21:43.466Z,29.07
2018-07-28T07:22:44.035Z,29.03
2018-07-28T07:23:44.607Z,28.67
2018-07-28T07:24:45.206Z,28.35
2018-07-28T07:25:45.745Z,28.08
2018-07-28T07:26:46.326Z,27.85
2018-07-28T07:27:46.890Z,27.68
2018-07-28T07:28:47.462Z,27.68
2018-07-28T07:29:48.038Z,27.63
2018-07-28T07:30:48.606Z,27.62
2018-07-28T07:31:49.169Z,27.67
2018-07-28T07:32:49.737Z,27.43
2018-07-28T07:33:50.303Z,27.28
2018-07-28T07:34:50.878Z,27.28
2018-07-28T07:35:51.446Z,27.02
2018-07-28T07:36:52.018Z,26.99
2018-07-28T07:37:52.598Z,26.95
2018-07-28T07:38:53.146Z,26.84
2018-07-28T07:39:53.711Z,26.74
2018-07-28T07:40:54.286Z,26.80
2018-07-28T07:41:54.845Z,26.73
2018-07-28T07:42:55.410Z,26.58
2018-07-28T07:43:55.975Z,26.59
2018-07-28T07:44:56.547Z,26.51
2018-07-28T07:45:57.116Z,26.54
2018-07-28T07:46:57.681Z,26.51
2018-07-28T07:47:58.253Z,26.39
2018-07-28T07:48:58.824Z,26.39
2018-07-28T07:49:59.390Z,26.31
2018-07-28T07:50:59.966Z,26.46
2018-07-28T07:52:00.521Z,26.46
2018-07-28T07:53:01.100Z,26.55
2018-07-28T07:54:01.696Z,26.62
2018-07-28T07:55:02.219Z,26.62
2018-07-28T07:56:02.791Z,26.73
2018-07-28T07:57:03.353Z,26.73
2018-07-28T07:58:03.920Z,26.77
2018-07-28T07:59:04.496Z,26.74
2018-07-28T08:00:05.061Z,26.85
2018-07-28T08:01:05.629Z,26.83
2018-07-28T08:02:06.198Z,26.74
2018-07-28T08:03:06.780Z,26.68
2018-07-28T08:04:07.334Z,26.63
2018-07-28T08:05:07.897Z,26.61
2018-07-28T08:06:08.467Z,26.58
2018-07-28T08:07:09.036Z,26.44
2018-07-28T08:08:09.607Z,26.54
2018-07-28T08:09:10.174Z,26.54
2018-07-28T08:10:10.749Z,26.61
2018-07-28T08:11:11.306Z,26.55
2018-07-28T08:12:11.880Z,26.47
2018-07-28T08:13:12.445Z,26.47
2018-07-28T08:14:13.006Z,26.46
2018-07-28T08:15:13.572Z,26.46
2018-07-28T08:16:14.141Z,26.54
2018-07-28T08:17:14.699Z,26.50
2018-07-28T08:18:15.267Z,26.44
2018-07-28T08:19:15.836Z,26.34
2018-07-28T08:20:16.410Z,26.18
2018-07-28T08:21:16.967Z,26.19
2018-07-28T08:22:17.532Z,26.34
2018-07-28T08:23:18.181Z,26.51
2018-07-28T08:24:18.788Z,26.69
2018-07-28T08:25:19.356Z,26.83
2018-07-28T08:26:19.929Z,27.11
2018-07-28T08:27:20.497Z,27.62
2018-07-28T08:28:21.067Z,27.88
2018-07-28T08:29:21.640Z,27.99
2018-07-28T08:30:22.199Z,28.33
2018-07-28T08:31:22.772Z,28.75
2018-07-28T08:32:23.337Z,28.94
2018-07-28T08:33:23.954Z,29.17
2018-07-28T08:34:24.507Z,29.34
2018-07-28T08:35:25.051Z,29.76
2018-07-28T08:36:25.627Z,29.99
2018-07-28T08:37:26.195Z,30.06
2018-07-28T08:38:26.779Z,30.40
2018-07-28T08:39:27.368Z,30.65
2018-07-28T08:40:27.917Z,30.93
2018-07-28T08:41:28.499Z,31.28
2018-07-28T08:42:29.070Z,31.67
2018-07-28T08:43:29.677Z,31.40
2018-07-28T08:44:30.251Z,31.12
2018-07-28T08:45:30.839Z,31.25
2018-07-28T08:46:31.411Z,31.39
2018-07-28T08:47:31.986Z,31.49
2018-07-28T08:48:32.554Z,31.24
2018-07-28T08:49:33.173Z,31.13
2018-07-28T08:50:33.706Z,30.99
2018-07-28T08:51:34.331Z,30.83
2018-07-28T08:52:34.852Z,30.87
2018-07-28T08:53:35.427Z,30.80
2018-07-28T08:54:36.005Z,30.66
2018-07-28T08:55:36.641Z,30.57
2018-07-28T08:56:37.130Z,30.43
2018-07-28T08:57:37.698Z,30.40
2018-07-28T08:58:38.263Z,30.35
2018-07-28T08:59:38.835Z,30.19
2018-07-28T09:00:39.406Z,30.09
2018-07-28T09:01:39.965Z,29.81
2018-07-28T09:02:40.546Z,29.53
2018-07-28T09:03:41.113Z,29.16
2018-07-28T09:04:41.681Z,29.25
2018-07-28T09:05:42.249Z,29.29
2018-07-28T09:06:42.820Z,29.19
2018-07-28T09:07:43.388Z,29.25
2018-07-28T09:08:43.952Z,29.13
2018-07-28T09:09:44.531Z,29.23
2018-07-28T09:10:45.100Z,29.34
2018-07-28T09:11:45.654Z,29.37
2018-07-28T09:12:46.237Z,29.41
2018-07-28T09:13:46.794Z,29.62
2018-07-28T09:14:47.363Z,29.71
2018-07-28T09:15:47.940Z,29.87
2018-07-28T09:16:48.509Z,29.78
2018-07-28T09:17:49.106Z,29.91
2018-07-28T09:18:49.649Z,29.72
2018-07-28T09:19:50.216Z,29.48
2018-07-28T09:20:50.794Z,29.34
2018-07-28T09:21:51.346Z,29.20
2018-07-28T09:22:51.917Z,29.34
2018-07-28T09:23:52.489Z,29.30
2018-07-28T09:24:53.061Z,29.22
2018-07-28T09:25:53.632Z,29.23
2018-07-28T09:26:54.208Z,29.13
2018-07-28T09:27:54.775Z,29.05
2018-07-28T09:28:55.343Z,29.10
2018-07-28T09:29:55.914Z,29.07
2018-07-28T09:30:56.483Z,29.16
2018-07-28T09:31:57.056Z,29.15
2018-07-28T09:32:57.630Z,29.11
2018-07-28T09:33:58.187Z,29.23
2018-07-28T09:34:58.758Z,29.44
2018-07-28T09:35:59.328Z,29.53
2018-07-28T09:36:59.967Z,29.81
2018-07-28T09:38:00.462Z,30.12
2018-07-28T09:39:01.027Z,30.56
2018-07-28T09:40:01.609Z,30.86
2018-07-28T09:41:02.171Z,31.18
2018-07-28T09:42:02.747Z,31.05
2018-07-28T09:43:03.319Z,31.01
2018-07-28T09:44:03.889Z,31.05
2018-07-28T09:45:04.457Z,30.80
2018-07-28T09:46:05.027Z,30.59
2018-07-28T09:47:05.625Z,30.51
2018-07-28T09:48:06.172Z,30.33
2018-07-28T09:49:06.737Z,30.21
2018-07-28T09:50:07.309Z,30.26
2018-07-28T09:51:07.880Z,30.38
2018-07-28T09:52:08.444Z,30.18
2018-07-28T09:53:09.018Z,30.09
2018-07-28T09:54:09.591Z,30.13
2018-07-28T09:55:10.163Z,30.24
2018-07-28T09:56:10.785Z,30.13
2018-07-28T09:57:11.335Z,30.00
2018-07-28T09:58:11.906Z,29.78
2018-07-28T09:59:12.478Z,30.03
2018-07-28T10:00:13.046Z,29.75
2018-07-28T10:01:13.612Z,29.52
2018-07-28T10:02:14.185Z,29.79
2018-07-28T10:03:14.758Z,30.01
2018-07-28T10:04:15.335Z,30.16
2018-07-28T10:05:15.913Z,30.24
2018-07-28T10:06:16.482Z,30.26
2018-07-28T10:07:17.056Z,30.35
2018-07-28T10:08:17.646Z,30.72
2018-07-28T10:09:18.204Z,30.90
2018-07-28T10:10:18.777Z,31.34
2018-07-28T10:11:19.351Z,31.49
2018-07-28T10:12:19.920Z,31.67
2018-07-28T10:13:20.492Z,31.88
2018-07-28T10:14:21.068Z,32.03
2018-07-28T10:15:21.650Z,32.06
2018-07-28T10:16:22.300Z,32.17
2018-07-28T10:17:22.789Z,32.02
2018-07-28T10:18:23.355Z,32.12
2018-07-28T10:19:23.930Z,32.14
2018-07-28T10:20:24.507Z,32.30
2018-07-28T10:21:25.083Z,32.10
2018-07-28T10:22:25.657Z,32.21
2018-07-28T10:23:26.238Z,32.34
2018-07-28T10:24:26.809Z,32.56
2018-07-28T10:25:27.388Z,33.03
2018-07-28T10:26:27.958Z,32.93
2018-07-28T10:27:28.535Z,33.15
2018-07-28T10:28:29.126Z,33.28
2018-07-28T10:29:29.689Z,33.58
2018-07-28T10:30:30.259Z,33.79
2018-07-28T10:31:30.837Z,33.53
2018-07-28T10:32:31.414Z,33.20
2018-07-28T10:33:31.989Z,33.28
2018-07-28T10:34:32.567Z,33.34
2018-07-28T10:35:33.142Z,33.28
2018-07-28T10:36:33.733Z,32.81
2018-07-28T10:37:34.298Z,32.44
2018-07-28T10:38:34.876Z,32.67
2018-07-28T10:39:35.438Z,32.44
2018-07-28T10:40:36.011Z,31.97
2018-07-28T10:41:36.588Z,31.80
2018-07-28T10:42:37.162Z,31.84
2018-07-28T10:43:37.731Z,31.62
2018-07-28T10:44:38.303Z,31.36
2018-07-28T10:45:38.902Z,31.45
2018-07-28T10:46:39.444Z,31.27
2018-07-28T10:47:40.016Z,31.24
2018-07-28T10:48:40.581Z,31.09
2018-07-28T10:49:41.156Z,31.08
2018-07-28T10:50:41.720Z,30.97
2018-07-28T10:51:42.292Z,30.68
2018-07-28T10:52:42.866Z,30.46
2018-07-28T10:53:43.436Z,30.53
2018-07-28T10:54:44.011Z,30.38
2018-07-28T10:55:44.582Z,30.54
2018-07-28T10:56:45.154Z,30.86
2018-07-28T10:57:45.728Z,31.10
2018-07-28T10:58:46.301Z,31.25
2018-07-28T10:59:46.878Z,31.30
2018-07-28T11:00:47.457Z,31.36
2018-07-28T11:01:48.026Z,31.64
2018-07-28T11:02:48.600Z,31.96
2018-07-28T11:03:49.173Z,32.03
2018-07-28T11:04:49.755Z,32.06
2018-07-28T11:05:50.326Z,32.15
2018-07-28T11:06:50.900Z,32.22
2018-07-28T11:07:51.475Z,32.34
2018-07-28T11:08:52.058Z,32.37
2018-07-28T11:09:52.626Z,32.66
2018-07-28T11:10:53.205Z,33.10
2018-07-28T11:11:53.787Z,33.13
2018-07-28T11:12:54.363Z,33.05
2018-07-28T11:13:54.933Z,33.13
2018-07-28T11:14:55.505Z,33.48
2018-07-28T11:15:56.080Z,33.38
2018-07-28T11:16:56.654Z,33.74
2018-07-28T11:17:57.228Z,34.07
2018-07-28T11:18:57.867Z,34.16
2018-07-28T11:19:58.379Z,34.35
2018-07-28T11:20:58.958Z,34.27
2018-07-28T11:21:59.529Z,34.35
2018-07-28T11:23:00.146Z,34.41
2018-07-28T11:24:00.834Z,34.38
2018-07-28T11:25:01.419Z,34.65
2018-07-28T11:26:02.158Z,34.80
2018-07-28T11:27:02.635Z,34.76
2018-07-28T11:28:03.212Z,34.80
2018-07-28T11:29:03.787Z,35.02
2018-07-28T11:30:04.363Z,34.84
2018-07-28T11:31:04.939Z,34.51
2018-07-28T11:32:05.593Z,33.99
2018-07-28T11:33:06.084Z,33.65
2018-07-28T11:34:06.658Z,33.26
2018-07-28T11:35:07.230Z,33.04
2018-07-28T11:36:07.806Z,33.14
2018-07-28T11:37:08.380Z,33.08
2018-07-28T11:38:08.957Z,33.37
2018-07-28T11:39:09.534Z,33.58
2018-07-28T11:40:10.111Z,33.98
2018-07-28T11:41:10.683Z,34.27
2018-07-28T11:42:11.259Z,34.46
2018-07-28T11:43:11.828Z,34.70
2018-07-28T11:44:12.440Z,34.76
2018-07-28T11:45:13.013Z,35.02
2018-07-28T11:46:13.586Z,35.23
2018-07-28T11:47:14.165Z,35.45
2018-07-28T11:48:14.740Z,35.45
2018-07-28T11:49:15.317Z,35.64
2018-07-28T11:50:15.892Z,35.52
2018-07-28T11:51:16.512Z,35.58
2018-07-28T11:52:17.049Z,35.89
2018-07-28T11:53:17.626Z,36.00
2018-07-28T11:54:18.201Z,36.17
2018-07-28T11:55:18.773Z,36.21
2018-07-28T11:56:19.347Z,36.45
2018-07-28T11:57:19.925Z,36.57
2018-07-28T11:58:20.606Z,36.17
2018-07-28T11:59:21.075Z,36.12
2018-07-28T12:00:21.651Z,36.39
2018-07-28T12:01:22.229Z,36.63
2018-07-28T12:02:22.804Z,36.76
2018-07-28T12:03:23.370Z,37.07
2018-07-28T12:04:23.956Z,37.48
2018-07-28T12:05:24.595Z,37.93
2018-07-28T12:06:25.118Z,38.05
2018-07-28T12:07:25.692Z,37.71
2018-07-28T12:08:26.267Z,37.13
2018-07-28T12:09:26.850Z,36.86
2018-07-28T12:10:27.420Z,36.85
2018-07-28T12:11:27.999Z,36.60
2018-07-28T12:12:28.626Z,35.93
2018-07-28T12:13:29.147Z,35.73
2018-07-28T12:14:29.732Z,35.69
2018-07-28T12:15:30.306Z,35.62
2018-07-28T12:16:30.884Z,35.28
2018-07-28T12:17:31.489Z,35.54
2018-07-28T12:18:32.100Z,35.47
2018-07-28T12:19:32.613Z,35.86
2018-07-28T12:20:33.186Z,35.88
2018-07-28T12:21:33.758Z,35.81
2018-07-28T12:22:34.337Z,35.73
2018-07-28T12:23:34.914Z,35.20
2018-07-28T12:24:35.489Z,35.18
2018-07-28T12:25:36.065Z,35.26
2018-07-28T12:26:36.634Z,35.05
2018-07-28T12:27:37.198Z,34.96
2018-07-28T12:28:37.770Z,34.56
2018-07-28T12:29:38.344Z,34.34
2018-07-28T12:30:38.913Z,34.13
2018-07-28T12:31:39.491Z,33.97
2018-07-28T12:32:40.060Z,33.93
2018-07-28T12:33:40.635Z,33.83
2018-07-28T12:34:41.304Z,34.04
2018-07-28T12:35:41.841Z,34.58
2018-07-28T12:36:42.507Z,34.57
2018-07-28T12:37:43.174Z,34.38
2018-07-28T12:38:43.799Z,34.19
2018-07-28T12:39:44.422Z,34.71
2018-07-28T12:40:45.039Z,34.93
2018-07-28T12:41:45.717Z,34.84
2018-07-28T12:42:46.319Z,35.17
2018-07-28T12:43:46.911Z,35.51
2018-07-28T12:44:47.474Z,35.59
2018-07-28T12:45:48.052Z,35.66
2018-07-28T12:46:48.629Z,35.81
2018-07-28T12:47:49.213Z,35.62
2018-07-28T12:48:49.781Z,35.25
2018-07-28T12:49:50.353Z,35.14
2018-07-28T12:50:50.930Z,35.05
2018-07-28T12:51:51.499Z,34.96
2018-07-28T12:52:52.081Z,35.02
2018-07-28T12:53:52.653Z,34.95
2018-07-28T12:54:53.230Z,34.88
2018-07-28T12:55:53.803Z,34.76
2018-07-28T12:56:54.378Z,34.73
2018-07-28T12:57:54.950Z,34.83
2018-07-28T12:58:55.527Z,34.88
2018-07-28T12:59:56.102Z,34.77